createdAt,value
2017-06-17T00:01:31.730Z,57.80
2017-06-17T00:03:57.979Z,57.90
2017-06-17T00:06:24.334Z,57.70
2017-06-17T00:08:50.595Z,58.20
2017-06-17T00:11:16.932Z,58.10
2017-06-17T00:13:43.207Z,57.90
2017-06-17T00:17:37.321Z,58.40
2017-06-17T00:20:04.348Z,58.60
2017-06-17T00:22:30.646Z,58.30
2017-06-17T00:24:56.920Z,57.70
2017-06-17T00:27:23.191Z,57.60
2017-06-17T00:29:49.440Z,57.50
2017-06-17T00:32:15.728Z,57.10
2017-06-17T00:34:42.005Z,57.10
2017-06-17T00:37:08.274Z,57.40
2017-06-17T00:39:34.618Z,57.50
2017-06-17T00:42:00.890Z,57.60
2017-06-17T00:44:27.174Z,58.10
2017-06-17T00:46:53.454Z,58.20
2017-06-17T00:49:19.716Z,58.40
2017-06-17T00:51:46.029Z,57.90
2017-06-17T00:54:12.410Z,58.00
2017-06-17T00:56:38.727Z,58.20
2017-06-17T00:59:05.019Z,57.60
2017-06-17T01:01:32.082Z,58.60
2017-06-17T01:03:59.078Z,59.40
2017-06-17T01:06:25.355Z,57.50
2017-06-17T01:08:52.371Z,58.60
2017-06-17T01:11:18.626Z,57.50
2017-06-17T01:13:45.635Z,58.70
2017-06-17T01:17:38.466Z,57.70
2017-06-17T01:20:04.856Z,57.60
2017-06-17T01:22:31.159Z,57.90
2017-06-17T01:24:57.423Z,57.70
2017-06-17T01:27:23.668Z,57.70
2017-06-17T01:29:49.942Z,58.20
2017-06-17T01:32:16.251Z,57.70
2017-06-17T01:34:42.542Z,58.40
2017-06-17T01:37:08.938Z,58.40
2017-06-17T01:39:35.215Z,58.10
2017-06-17T01:42:01.527Z,58.30
2017-06-17T01:44:27.797Z,58.30
2017-06-17T01:46:54.124Z,58.80
2017-06-17T01:49:20.501Z,57.90
2017-06-17T01:51:46.776Z,58.10
2017-06-17T01:54:13.166Z,57.30
2017-06-17T01:56:39.447Z,57.60
2017-06-17T01:59:05.727Z,56.90
2017-06-17T02:01:31.978Z,56.50
2017-06-17T02:03:58.249Z,56.90
2017-06-17T02:06:24.603Z,57.70
2017-06-17T02:08:50.870Z,57.30
2017-06-17T02:11:17.184Z,57.30
2017-06-17T02:13:43.449Z,57.10
2017-06-17T02:17:38.327Z,56.10
2017-06-17T02:20:04.595Z,55.30
2017-06-17T02:22:30.820Z,56.10
2017-06-17T02:24:57.064Z,56.80
2017-06-17T02:27:23.425Z,56.50
2017-06-17T02:29:49.678Z,56.80
2017-06-17T02:32:15.922Z,55.90
2017-06-17T02:34:42.206Z,55.80
2017-06-17T02:37:08.476Z,56.50
2017-06-17T02:39:34.714Z,55.20
2017-06-17T02:42:01.082Z,55.50
2017-06-17T02:44:27.333Z,56.00
2017-06-17T02:46:53.578Z,56.10
2017-06-17T02:49:19.830Z,56.40
2017-06-17T02:51:46.087Z,55.50
2017-06-17T02:54:12.351Z,56.00
2017-06-17T02:56:39.382Z,56.80
2017-06-17T02:59:05.650Z,56.20
2017-06-17T03:01:31.987Z,56.40
2017-06-17T03:03:58.238Z,56.00
2017-06-17T03:06:24.476Z,56.60
2017-06-17T03:08:50.719Z,57.00
2017-06-17T03:11:17.003Z,56.70
2017-06-17T03:13:43.251Z,56.70
2017-06-17T03:17:38.190Z,57.20
2017-06-17T03:20:04.526Z,57.10
2017-06-17T03:22:30.846Z,57.60
2017-06-17T03:24:57.175Z,57.60
2017-06-17T03:27:23.428Z,57.90
2017-06-17T03:29:49.660Z,57.30
2017-06-17T03:32:15.993Z,57.40
2017-06-17T03:34:42.362Z,57.00
2017-06-17T03:37:08.604Z,58.20
2017-06-17T03:39:34.950Z,58.40
2017-06-17T03:42:01.303Z,58.10
2017-06-17T03:44:27.535Z,58.40
2017-06-17T03:46:53.766Z,58.10
2017-06-17T03:49:20.108Z,58.30
2017-06-17T03:51:46.399Z,58.40
2017-06-17T03:54:12.643Z,58.60
2017-06-17T03:56:38.883Z,58.60
2017-06-17T03:59:05.141Z,58.00
2017-06-17T04:01:31.439Z,58.90
2017-06-17T04:03:57.711Z,59.00
2017-06-17T04:06:23.959Z,59.10
2017-06-17T04:08:50.262Z,59.50
2017-06-17T04:11:16.520Z,59.10
2017-06-17T04:13:42.787Z,59.40
2017-06-17T04:17:37.858Z,59.00
2017-06-17T04:20:04.120Z,59.20
2017-06-17T04:22:30.723Z,59.30
2017-06-17T04:24:57.033Z,59.00
2017-06-17T04:27:23.270Z,58.80
2017-06-17T04:29:49.539Z,59.50
2017-06-17T04:32:15.791Z,58.90
2017-06-17T04:34:42.036Z,60.00
2017-06-17T04:37:08.379Z,59.60
2017-06-17T04:39:34.619Z,60.10
2017-06-17T04:42:00.896Z,60.50
2017-06-17T04:44:27.224Z,60.20
2017-06-17T04:46:53.571Z,60.30
2017-06-17T04:49:19.833Z,61.00
2017-06-17T04:51:46.080Z,61.10
2017-06-17T04:54:12.334Z,60.70
2017-06-17T04:56:38.585Z,61.20
2017-06-17T04:59:04.854Z,60.40
2017-06-17T05:01:31.226Z,60.70
2017-06-17T05:03:58.686Z,60.80
2017-06-17T05:06:24.959Z,61.40
2017-06-17T05:08:51.554Z,60.80
2017-06-17T05:11:17.803Z,60.40
2017-06-17T05:13:44.085Z,61.60
2017-06-17T05:29:00.519Z,61.60
2017-06-17T05:31:27.201Z,61.20
2017-06-17T05:33:53.572Z,60.90
2017-06-17T05:36:20.568Z,61.40
2017-06-17T05:38:47.079Z,61.50
2017-06-17T05:41:13.517Z,61.80
2017-06-17T05:43:39.827Z,61.60
2017-06-17T05:46:06.426Z,61.90
2017-06-17T05:48:32.829Z,61.80
2017-06-17T05:50:59.228Z,61.60
2017-06-17T05:53:25.498Z,61.90
2017-06-17T05:55:51.770Z,62.90
2017-06-17T05:58:18.135Z,62.50
2017-06-17T06:00:45.067Z,62.30
2017-06-17T06:03:12.748Z,63.10
2017-06-17T06:05:39.893Z,63.40
2017-06-17T06:08:06.309Z,63.50
2017-06-17T06:10:32.643Z,63.70
2017-06-17T06:12:58.922Z,63.70
2017-06-17T06:17:37.349Z,63.70
2017-06-17T06:20:03.632Z,64.10
2017-06-17T06:22:30.278Z,64.20
2017-06-17T06:24:56.543Z,64.70
2017-06-17T06:27:22.835Z,64.20
2017-06-17T06:29:49.099Z,64.00
2017-06-17T06:32:15.351Z,64.30
2017-06-17T06:34:42.005Z,64.20
2017-06-17T06:37:08.258Z,64.00
2017-06-17T06:39:34.503Z,64.00
2017-06-17T06:42:00.734Z,63.40
2017-06-17T06:44:27.016Z,63.40
2017-06-17T06:46:53.384Z,62.50
2017-06-17T06:49:19.627Z,62.50
2017-06-17T06:51:45.950Z,64.00
2017-06-17T06:54:12.205Z,62.90
2017-06-17T06:56:38.497Z,62.10
2017-06-17T06:59:04.763Z,62.80
2017-06-17T07:01:31.006Z,60.80
2017-06-17T07:03:57.415Z,60.30
2017-06-17T07:06:23.713Z,60.10
2017-06-17T07:08:49.975Z,59.70
2017-06-17T07:11:16.326Z,58.30
2017-06-17T07:13:42.615Z,59.20
2017-06-17T07:17:37.044Z,57.30
2017-06-17T07:20:03.315Z,57.30
2017-06-17T07:22:29.552Z,58.20
2017-06-17T07:24:56.013Z,57.70
2017-06-17T07:27:22.248Z,57.50
2017-06-17T07:29:48.527Z,56.70
2017-06-17T07:32:14.806Z,56.70
2017-06-17T07:34:41.046Z,55.90
2017-06-17T07:37:07.395Z,56.90
2017-06-17T07:39:33.645Z,56.50
2017-06-17T07:41:59.904Z,57.00
2017-06-17T07:44:26.166Z,56.40
2017-06-17T07:46:52.433Z,55.30
2017-06-17T07:49:18.818Z,55.00
2017-06-17T07:51:45.284Z,54.90
2017-06-17T07:54:11.587Z,54.60
2017-06-17T07:56:37.830Z,53.80
2017-06-17T07:59:04.120Z,54.50
2017-06-17T08:01:30.379Z,53.30
2017-06-17T08:03:56.723Z,53.20
2017-06-17T08:06:23.012Z,51.70
2017-06-17T08:08:49.458Z,51.50
2017-06-17T08:11:15.775Z,53.70
2017-06-17T08:13:42.074Z,54.00
2017-06-17T08:17:38.319Z,52.30
2017-06-17T08:20:05.064Z,53.20
2017-06-17T08:22:31.400Z,54.40
2017-06-17T08:24:57.640Z,53.10
2017-06-17T08:27:23.927Z,53.80
2017-06-17T08:29:50.167Z,53.90
2017-06-17T08:32:16.570Z,54.90
2017-06-17T08:34:42.805Z,55.70
2017-06-17T08:37:09.033Z,56.10
2017-06-17T08:39:35.292Z,55.30
2017-06-17T08:42:01.532Z,55.80
2017-06-17T08:44:27.924Z,56.30
2017-06-17T08:46:54.249Z,56.30
2017-06-17T08:49:20.620Z,56.30
2017-06-17T08:51:47.149Z,56.70
2017-06-17T08:54:13.443Z,57.10
2017-06-17T08:56:39.695Z,56.90
2017-06-17T08:59:05.968Z,56.70
2017-06-17T09:01:32.219Z,56.80
2017-06-17T09:03:58.472Z,55.70
2017-06-17T09:06:24.712Z,55.50
2017-06-17T09:08:50.997Z,54.60
2017-06-17T09:11:17.399Z,54.70
2017-06-17T09:13:43.634Z,55.50
2017-06-17T09:17:37.436Z,55.20
2017-06-17T09:20:03.680Z,55.20
2017-06-17T09:22:29.923Z,55.90
2017-06-17T09:24:56.399Z,55.30
2017-06-17T09:27:22.660Z,55.30
2017-06-17T09:29:49.012Z,55.70
2017-06-17T09:32:15.310Z,56.10
2017-06-17T09:34:41.626Z,56.20
2017-06-17T09:37:07.888Z,55.10
2017-06-17T09:39:34.157Z,55.80
2017-06-17T09:42:02.302Z,55.40
2017-06-17T09:44:28.713Z,55.80
2017-06-17T09:46:54.956Z,55.00
2017-06-17T09:49:21.207Z,55.00
2017-06-17T09:51:47.538Z,55.30
2017-06-17T09:54:14.877Z,55.40
2017-06-17T09:56:41.116Z,56.40
2017-06-17T09:59:07.351Z,55.00
2017-06-17T10:01:33.724Z,55.30
2017-06-17T10:04:00.036Z,54.80
2017-06-17T10:06:26.256Z,53.30
2017-06-17T10:08:52.496Z,53.60
2017-06-17T10:11:18.742Z,53.90
2017-06-17T10:13:45.084Z,54.20
2017-06-17T10:17:37.073Z,53.20
2017-06-17T10:20:03.328Z,50.70
2017-06-17T10:22:29.644Z,49.90
2017-06-17T10:24:55.914Z,50.80
2017-06-17T10:27:22.171Z,48.80
2017-06-17T10:29:48.499Z,49.30
2017-06-17T10:32:14.756Z,48.40
2017-06-17T10:34:41.052Z,47.50
2017-06-17T10:37:07.345Z,47.40
2017-06-17T10:39:33.719Z,47.00
2017-06-17T10:41:59.956Z,47.30
2017-06-17T10:44:26.208Z,46.10
2017-06-17T10:46:52.568Z,47.20
2017-06-17T10:49:18.892Z,43.90
2017-06-17T10:51:45.213Z,44.00
2017-06-17T10:54:11.557Z,42.90
2017-06-17T10:56:37.828Z,42.70
2017-06-17T10:59:04.096Z,43.40
2017-06-17T11:01:30.415Z,43.00
2017-06-17T11:03:56.671Z,43.80
2017-06-17T11:06:23.318Z,44.10
2017-06-17T11:08:49.555Z,42.90
2017-06-17T11:11:15.820Z,43.10
2017-06-17T11:13:42.134Z,41.90
2017-06-17T11:17:36.839Z,42.00
2017-06-17T11:20:03.121Z,40.50
2017-06-17T11:22:29.450Z,43.40
2017-06-17T11:24:55.773Z,42.90
2017-06-17T11:27:22.025Z,43.10
2017-06-17T11:29:48.262Z,42.40
2017-06-17T11:32:14.515Z,42.90
2017-06-17T11:34:40.887Z,43.00
2017-06-17T11:37:07.140Z,45.30
2017-06-17T11:39:33.467Z,45.10
2017-06-17T11:41:59.797Z,44.90
2017-06-17T11:44:26.110Z,44.70
2017-06-17T11:46:52.472Z,46.10
2017-06-17T11:49:18.723Z,44.80
2017-06-17T11:51:45.006Z,44.70
2017-06-17T11:54:11.270Z,44.90
2017-06-17T11:56:37.539Z,44.40
2017-06-17T11:59:03.799Z,43.50
2017-06-17T12:01:30.067Z,42.90
2017-06-17T12:03:56.547Z,43.00
2017-06-17T12:06:22.829Z,43.00
2017-06-17T12:08:49.089Z,43.80
2017-06-17T12:11:15.337Z,44.10
2017-06-17T12:13:41.612Z,44.30
2017-06-17T12:17:37.848Z,45.10
2017-06-17T12:20:04.128Z,42.80
2017-06-17T12:22:30.491Z,42.20
2017-06-17T12:24:56.764Z,44.10
2017-06-17T12:27:23.018Z,42.40
2017-06-17T12:29:49.267Z,41.80
2017-06-17T12:32:15.525Z,40.30
2017-06-17T12:34:41.820Z,39.50
2017-06-17T12:37:08.067Z,40.00
2017-06-17T12:39:34.405Z,43.00
2017-06-17T12:42:00.690Z,41.10
2017-06-17T12:44:26.963Z,40.50
2017-06-17T12:46:53.286Z,39.60
2017-06-17T12:49:19.563Z,39.50
2017-06-17T12:51:45.856Z,37.90
2017-06-17T12:54:12.124Z,38.30
2017-06-17T12:56:38.456Z,38.30
2017-06-17T12:59:04.841Z,38.40
2017-06-17T13:01:31.156Z,38.90
2017-06-17T13:03:57.476Z,40.60
2017-06-17T13:06:23.726Z,39.30
2017-06-17T13:08:49.978Z,38.10
2017-06-17T13:11:16.307Z,38.00
2017-06-17T13:13:42.523Z,40.50
2017-06-17T13:17:38.440Z,38.90
2017-06-17T13:20:04.738Z,38.20
2017-06-17T13:22:31.079Z,39.20
2017-06-17T13:24:57.408Z,39.10
2017-06-17T13:27:23.645Z,40.60
2017-06-17T13:29:49.930Z,40.10
2017-06-17T13:32:16.212Z,39.60
2017-06-17T13:34:42.457Z,38.20
2017-06-17T13:37:08.769Z,37.40
2017-06-17T13:39:34.996Z,36.90
2017-06-17T13:42:01.230Z,36.20
2017-06-17T13:44:27.471Z,38.40
2017-06-17T13:46:53.708Z,37.00
2017-06-17T13:49:20.075Z,37.40
2017-06-17T13:51:46.394Z,36.50
2017-06-17T13:54:12.625Z,35.90
2017-06-17T13:56:38.846Z,35.70
2017-06-17T13:59:05.075Z,35.80
2017-06-17T14:01:31.335Z,36.50
2017-06-17T14:03:57.644Z,36.70
2017-06-17T14:06:23.894Z,37.40
2017-06-17T14:08:50.139Z,38.20
2017-06-17T14:11:16.361Z,37.00
2017-06-17T14:13:42.730Z,36.40
2017-06-17T14:17:37.417Z,33.70
2017-06-17T14:20:03.673Z,35.90
2017-06-17T14:22:29.960Z,35.70
2017-06-17T14:24:56.267Z,35.30
2017-06-17T14:27:22.505Z,37.90
2017-06-17T14:29:48.906Z,37.60
2017-06-17T14:32:15.139Z,37.20
2017-06-17T14:34:41.460Z,36.80
2017-06-17T14:37:07.720Z,36.10
2017-06-17T14:39:33.999Z,36.10
2017-06-17T14:42:00.307Z,34.70
2017-06-17T14:44:26.536Z,35.10
2017-06-17T14:46:52.875Z,35.60
2017-06-17T14:49:19.143Z,37.30
2017-06-17T14:51:45.398Z,35.50
2017-06-17T14:54:11.636Z,36.40
2017-06-17T14:56:37.992Z,37.80
2017-06-17T14:59:04.644Z,37.80
2017-06-17T15:01:30.977Z,39.20
2017-06-17T15:03:57.240Z,39.20
2017-06-17T15:06:23.500Z,39.50
2017-06-17T15:08:49.752Z,38.50
2017-06-17T15:11:16.110Z,38.40
2017-06-17T15:13:42.358Z,37.20
2017-06-17T15:17:37.003Z,37.90
2017-06-17T15:20:03.263Z,38.60
2017-06-17T15:22:29.661Z,39.20
2017-06-17T15:24:55.904Z,39.30
2017-06-17T15:27:22.159Z,39.00
2017-06-17T15:29:48.403Z,40.00
2017-06-17T15:32:14.636Z,40.20
2017-06-17T15:34:40.946Z,40.20
2017-06-17T15:37:07.232Z,40.10
2017-06-17T15:39:34.295Z,40.50
2017-06-17T15:42:00.854Z,41.20
2017-06-17T15:44:27.155Z,40.10
2017-06-17T15:46:53.609Z,41.10
2017-06-17T15:49:20.042Z,42.10
2017-06-17T15:51:46.528Z,43.10
2017-06-17T15:54:12.843Z,42.40
2017-06-17T15:56:39.973Z,42.60
2017-06-17T15:59:06.585Z,42.20
2017-06-17T16:01:33.064Z,41.80
2017-06-17T16:03:59.463Z,41.40
2017-06-17T16:06:25.717Z,41.50
2017-06-17T16:08:52.338Z,41.60
2017-06-17T16:11:18.622Z,41.40
2017-06-17T16:13:45.145Z,41.90
2017-06-17T16:17:36.867Z,41.60
2017-06-17T16:20:03.410Z,42.20
2017-06-17T16:22:29.772Z,42.80
2017-06-17T16:24:56.010Z,42.20
2017-06-17T16:27:22.458Z,41.60
2017-06-17T16:29:48.804Z,40.70
2017-06-17T16:32:15.159Z,41.40
2017-06-17T16:34:41.585Z,41.30
2017-06-17T16:37:07.879Z,42.10
2017-06-17T16:39:34.128Z,42.80
2017-06-17T16:42:00.381Z,42.50
2017-06-17T16:44:26.620Z,41.60
2017-06-17T16:46:52.955Z,42.60
2017-06-17T16:49:19.192Z,42.20
2017-06-17T16:51:45.481Z,42.40
2017-06-17T16:54:11.744Z,42.70
2017-06-17T16:56:37.967Z,43.10
2017-06-17T16:59:04.331Z,42.60
2017-06-17T17:01:30.576Z,42.80
2017-06-17T17:03:56.836Z,42.60
2017-06-17T17:06:23.086Z,43.40
2017-06-17T17:08:49.337Z,43.90
2017-06-17T17:11:15.748Z,44.40
2017-06-17T17:13:42.015Z,44.10
2017-06-17T17:17:37.424Z,43.90
2017-06-17T17:20:03.671Z,44.80
2017-06-17T17:22:30.003Z,44.70
2017-06-17T17:24:56.271Z,45.10
2017-06-17T17:27:22.529Z,45.80
2017-06-17T17:29:48.856Z,46.00
2017-06-17T17:32:15.095Z,46.10
2017-06-17T17:34:41.366Z,46.20
2017-06-17T17:37:07.612Z,46.20
2017-06-17T17:39:33.855Z,46.30
2017-06-17T17:42:00.227Z,46.30
2017-06-17T17:44:26.460Z,46.40
2017-06-17T17:46:52.797Z,45.80
2017-06-17T17:49:19.101Z,46.40
2017-06-17T17:51:45.404Z,46.80
2017-06-17T17:54:11.854Z,45.80
2017-06-17T17:56:38.140Z,46.00
2017-06-17T17:59:04.408Z,46.70
2017-06-17T18:01:30.656Z,47.20
2017-06-17T18:03:58.179Z,47.80
2017-06-17T18:06:24.597Z,47.40
2017-06-17T18:08:50.848Z,47.40
2017-06-17T18:11:17.152Z,46.80
2017-06-17T18:13:43.499Z,46.20
2017-06-17T18:17:37.276Z,45.80
2017-06-17T18:20:03.535Z,45.90
2017-06-17T18:22:29.926Z,45.40
2017-06-17T18:24:56.216Z,45.80
2017-06-17T18:30:19.000Z,46.30
2017-06-17T18:32:45.351Z,47.00
2017-06-17T18:35:11.708Z,46.80
2017-06-17T18:37:37.935Z,47.20
2017-06-17T18:40:04.172Z,47.00
2017-06-17T18:42:30.419Z,46.80
2017-06-17T18:44:56.677Z,46.50
2017-06-17T18:47:23.764Z,47.80
2017-06-17T18:49:50.061Z,47.40
2017-06-17T18:52:16.515Z,47.80
2017-06-17T18:54:42.909Z,47.90
2017-06-17T18:57:09.165Z,47.90
2017-06-17T18:59:36.202Z,48.20
2017-06-17T19:02:03.026Z,48.70
2017-06-17T19:04:29.437Z,48.90
2017-06-17T19:06:55.733Z,49.40
2017-06-17T19:09:24.239Z,49.60
2017-06-17T19:11:52.873Z,50.70
2017-06-17T19:14:21.801Z,51.20
2017-06-17T19:17:37.219Z,51.50
2017-06-17T19:20:03.616Z,51.20
2017-06-17T19:22:29.876Z,52.10
2017-06-17T19:24:56.371Z,52.70
2017-06-17T19:27:22.847Z,52.90
2017-06-17T19:29:49.119Z,53.00
2017-06-17T19:32:15.384Z,53.00
2017-06-17T19:34:41.675Z,53.30
2017-06-17T19:37:08.094Z,53.40
2017-06-17T19:39:34.470Z,53.80
2017-06-17T19:42:00.757Z,53.90
2017-06-17T19:44:27.020Z,53.90
2017-06-17T19:46:53.270Z,53.80
2017-06-17T19:49:19.572Z,54.50
2017-06-17T19:51:45.920Z,54.40
2017-06-17T19:54:12.168Z,55.10
2017-06-17T19:56:38.404Z,55.50
2017-06-17T19:59:05.468Z,55.60
2017-06-17T20:01:32.257Z,55.60
2017-06-17T20:03:59.052Z,55.80
2017-06-17T20:06:25.320Z,56.30
2017-06-17T20:08:51.583Z,56.90
2017-06-17T20:11:17.860Z,56.60
2017-06-17T20:13:44.111Z,57.00
2017-06-17T20:18:13.698Z,56.90
2017-06-17T20:20:39.991Z,57.40
2017-06-17T20:23:06.335Z,57.40
2017-06-17T20:25:32.636Z,58.20
2017-06-17T20:27:59.221Z,57.80
2017-06-17T20:30:25.490Z,59.10
2017-06-17T20:32:51.764Z,58.80
2017-06-17T20:35:18.021Z,58.80
2017-06-17T20:37:44.275Z,58.70
2017-06-17T20:40:10.531Z,59.00
2017-06-17T20:42:36.868Z,59.30
2017-06-17T20:45:03.137Z,59.50
2017-06-17T20:47:29.519Z,59.80
2017-06-17T20:49:55.791Z,60.10
2017-06-17T20:52:22.044Z,60.40
2017-06-17T20:54:48.352Z,59.90
2017-06-17T20:57:14.596Z,60.80
2017-06-17T20:59:40.859Z,61.00
2017-06-17T21:02:07.143Z,60.40
2017-06-17T21:04:33.533Z,60.50
2017-06-17T21:07:00.168Z,60.80
2017-06-17T21:09:26.520Z,61.10
2017-06-17T21:11:52.769Z,61.50
2017-06-17T21:14:18.999Z,62.40
2017-06-17T21:17:38.532Z,62.30
2017-06-17T21:20:04.892Z,62.30
2017-06-17T21:22:31.231Z,63.30
2017-06-17T21:24:57.634Z,63.80
2017-06-17T21:27:23.919Z,63.90
2017-06-17T21:29:50.364Z,64.00
2017-06-17T21:32:16.767Z,63.40
2017-06-17T21:34:43.018Z,64.70
2017-06-17T21:37:09.343Z,64.40
2017-06-17T21:39:35.673Z,64.70
2017-06-17T21:42:02.016Z,65.80
2017-06-17T21:44:28.283Z,65.40
2017-06-17T21:46:54.568Z,65.10
2017-06-17T21:49:20.849Z,65.50
2017-06-17T21:51:47.108Z,66.20
2017-06-17T21:54:13.415Z,67.10
2017-06-17T21:56:39.645Z,67.70
2017-06-17T21:59:05.914Z,67.80
2017-06-17T22:01:32.163Z,68.10
2017-06-17T22:03:58.388Z,67.80
2017-06-17T22:06:24.807Z,68.50
2017-06-17T22:08:51.067Z,67.60
2017-06-17T22:11:17.303Z,67.30
2017-06-17T22:13:43.555Z,67.00
2017-06-17T22:17:37.409Z,67.10
2017-06-17T22:20:03.665Z,67.40
2017-06-17T22:22:29.939Z,68.10
2017-06-17T22:24:56.167Z,68.60
2017-06-17T22:27:22.415Z,68.20
2017-06-17T22:29:48.812Z,68.90
2017-06-17T22:32:15.055Z,69.40
2017-06-17T22:34:41.311Z,68.90
2017-06-17T22:37:07.580Z,69.10
2017-06-17T22:39:33.815Z,70.80
2017-06-17T22:42:00.226Z,70.20
2017-06-17T22:44:26.478Z,71.00
2017-06-17T22:46:52.708Z,71.00
2017-06-17T22:49:18.967Z,71.50
2017-06-17T22:51:45.207Z,70.70
2017-06-17T22:54:11.542Z,70.70
2017-06-17T22:56:37.791Z,70.90
2017-06-17T22:59:04.067Z,71.00
2017-06-17T23:01:30.304Z,71.80
2017-06-17T23:03:56.539Z,71.90
2017-06-17T23:06:22.774Z,70.90
2017-06-17T23:08:49.030Z,70.20
2017-06-17T23:11:15.354Z,70.80
2017-06-17T23:13:41.592Z,70.50
2017-06-17T23:17:39.994Z,70.10
2017-06-17T23:20:06.266Z,70.40
2017-06-17T23:22:32.596Z,70.60
2017-06-17T23:24:58.863Z,70.70
2017-06-17T23:27:25.104Z,71.40
2017-06-17T23:29:51.368Z,70.80
2017-06-17T23:32:17.600Z,70.90
2017-06-17T23:34:43.935Z,71.50
2017-06-17T23:37:10.175Z,72.10
2017-06-17T23:39:36.419Z,72.10
2017-06-17T23:42:02.718Z,72.30
2017-06-17T23:44:28.982Z,72.60
2017-06-17T23:46:55.588Z,72.40
2017-06-17T23:49:21.810Z,73.00
2017-06-17T23:51:48.101Z,72.40
2017-06-17T23:54:14.359Z,72.30
2017-06-17T23:56:40.588Z,72.60
2017-06-17T23:59:06.864Z,72.40
